sensor_id;sensor_type;location;lat;lon;timestamp;P1;durP1;ratioP1;P2;durP2;ratioP2
11651;SDS011;5882;48.818;9.114;2023-04-26T00:02:30;3.10;;;1.80;;
11651;SDS011;5882;48.818;9.114;2023-04-26T00:05:16;1.85;;;1.70;;
11651;SDS011;5882;48.818;9.114;2023-04-26T00:08:02;1.55;;;1.45;;
11651;SDS011;5882;48.818;9.114;2023-04-26T00:10:47;1.88;;;1.77;;
11651;SDS011;5882;48.818;9.114;2023-04-26T00:13:33;1.77;;;1.67;;
11651;SDS011;5882;48.818;9.114;2023-04-26T00:16:17;2.50;;;2.03;;
11651;SDS011;5882;48.818;9.114;2023-04-26T00:19:05;1.48;;;1.38;;
11651;SDS011;5882;48.818;9.114;2023-04-26T00:21:50;1.88;;;1.73;;
11651;SDS011;5882;48.818;9.114;2023-04-26T00:24:35;1.90;;;1.80;;
11651;SDS011;5882;48.818;9.114;2023-04-26T00:27:20;1.70;;;1.60;;
11651;SDS011;5882;48.818;9.114;2023-04-26T00:30:06;1.60;;;1.50;;
11651;SDS011;5882;48.818;9.114;2023-04-26T00:32:51;2.25;;;2.05;;
11651;SDS011;5882;48.818;9.114;2023-04-26T00:35:38;1.17;;;1.17;;
11651;SDS011;5882;48.818;9.114;2023-04-26T00:38:23;1.63;;;1.52;;
11651;SDS011;5882;48.818;9.114;2023-04-26T00:41:08;2.28;;;1.60;;
11651;SDS011;5882;48.818;9.114;2023-04-26T00:43:53;3.17;;;1.75;;
11651;SDS011;5882;48.818;9.114;2023-04-26T00:46:38;2.55;;;2.03;;
11651;SDS011;5882;48.818;9.114;2023-04-26T00:49:24;2.08;;;1.65;;
11651;SDS011;5882;48.818;9.114;2023-04-26T00:52:11;2.35;;;1.50;;
11651;SDS011;5882;48.818;9.114;2023-04-26T00:54:56;2.03;;;1.83;;
11651;SDS011;5882;48.818;9.114;2023-04-26T00:57:42;2.10;;;1.90;;
11651;SDS011;5882;48.818;9.114;2023-04-26T01:00:27;2.60;;;2.17;;
11651;SDS011;5882;48.818;9.114;2023-04-26T01:03:12;1.83;;;1.70;;
11651;SDS011;5882;48.818;9.114;2023-04-26T01:05:57;2.22;;;2.03;;
11651;SDS011;5882;48.818;9.114;2023-04-26T01:08:44;1.58;;;1.48;;
11651;SDS011;5882;48.818;9.114;2023-04-26T01:11:30;1.83;;;1.63;;
11651;SDS011;5882;48.818;9.114;2023-04-26T01:14:15;2.08;;;1.85;;
11651;SDS011;5882;48.818;9.114;2023-04-26T01:17:01;2.47;;;1.98;;
11651;SDS011;5882;48.818;9.114;2023-04-26T01:19:48;1.80;;;1.70;;
11651;SDS011;5882;48.818;9.114;2023-04-26T01:22:34;1.77;;;1.67;;
11651;SDS011;5882;48.818;9.114;2023-04-26T01:25:20;1.80;;;1.70;;
11651;SDS011;5882;48.818;9.114;2023-04-26T01:28:05;1.98;;;1.88;;
11651;SDS011;5882;48.818;9.114;2023-04-26T01:30:50;1.95;;;1.85;;
11651;SDS011;5882;48.818;9.114;2023-04-26T01:33:35;2.10;;;1.90;;
11651;SDS011;5882;48.818;9.114;2023-04-26T01:36:20;2.05;;;1.85;;
11651;SDS011;5882;48.818;9.114;2023-04-26T01:39:06;2.42;;;2.22;;
11651;SDS011;5882;48.818;9.114;2023-04-26T01:41:53;2.47;;;2.28;;
11651;SDS011;5882;48.818;9.114;2023-04-26T01:44:38;3.25;;;2.08;;
11651;SDS011;5882;48.818;9.114;2023-04-26T01:47:23;2.15;;;1.95;;
11651;SDS011;5882;48.818;9.114;2023-04-26T01:50:09;2.30;;;2.10;;
11651;SDS011;5882;48.818;9.114;2023-04-26T01:52:54;1.92;;;1.80;;
11651;SDS011;5882;48.818;9.114;2023-04-26T01:55:41;2.88;;;2.17;;
11651;SDS011;5882;48.818;9.114;2023-04-26T01:58:26;2.28;;;2.08;;
11651;SDS011;5882;48.818;9.114;2023-04-26T02:01:10;2.55;;;2.28;;
11651;SDS011;5882;48.818;9.114;2023-04-26T02:03:55;2.25;;;2.05;;
11651;SDS011;5882;48.818;9.114;2023-04-26T02:06:40;3.03;;;2.50;;
11651;SDS011;5882;48.818;9.114;2023-04-26T02:09:26;2.90;;;2.15;;
11651;SDS011;5882;48.818;9.114;2023-04-26T02:12:12;2.25;;;2.00;;
11651;SDS011;5882;48.818;9.114;2023-04-26T02:14:57;2.88;;;2.42;;
11651;SDS011;5882;48.818;9.114;2023-04-26T02:17:42;2.20;;;2.00;;
11651;SDS011;5882;48.818;9.114;2023-04-26T02:20:27;2.97;;;2.10;;
11651;SDS011;5882;48.818;9.114;2023-04-26T02:23:13;4.43;;;2.40;;
11651;SDS011;5882;48.818;9.114;2023-04-26T02:25:58;2.25;;;2.05;;
11651;SDS011;5882;48.818;9.114;2023-04-26T02:28:44;3.08;;;2.58;;
11651;SDS011;5882;48.818;9.114;2023-04-26T02:31:29;3.13;;;2.47;;
11651;SDS011;5882;48.818;9.114;2023-04-26T02:34:14;3.08;;;2.75;;
11651;SDS011;5882;48.818;9.114;2023-04-26T02:36:59;3.97;;;2.83;;
11651;SDS011;5882;48.818;9.114;2023-04-26T02:39:44;3.25;;;2.58;;
11651;SDS011;5882;48.818;9.114;2023-04-26T02:42:35;3.08;;;2.65;;
11651;SDS011;5882;48.818;9.114;2023-04-26T02:45:22;3.15;;;2.85;;
11651;SDS011;5882;48.818;9.114;2023-04-26T02:48:08;2.67;;;2.38;;
11651;SDS011;5882;48.818;9.114;2023-04-26T02:50:53;4.35;;;3.05;;
11651;SDS011;5882;48.818;9.114;2023-04-26T02:53:38;3.38;;;2.65;;
11651;SDS011;5882;48.818;9.114;2023-04-26T02:56:23;3.55;;;2.90;;
11651;SDS011;5882;48.818;9.114;2023-04-26T02:59:08;2.67;;;2.45;;
11651;SDS011;5882;48.818;9.114;2023-04-26T03:01:54;2.95;;;2.65;;
11651;SDS011;5882;48.818;9.114;2023-04-26T03:04:39;2.88;;;2.58;;
11651;SDS011;5882;48.818;9.114;2023-04-26T03:07:24;2.67;;;2.13;;
11651;SDS011;5882;48.818;9.114;2023-04-26T03:10:09;3.55;;;2.90;;
11651;SDS011;5882;48.818;9.114;2023-04-26T03:12:55;2.60;;;2.40;;
11651;SDS011;5882;48.818;9.114;2023-04-26T03:15:42;2.90;;;2.10;;
11651;SDS011;5882;48.818;9.114;2023-04-26T03:18:29;2.67;;;2.47;;
11651;SDS011;5882;48.818;9.114;2023-04-26T03:21:14;2.90;;;2.28;;
11651;SDS011;5882;48.818;9.114;2023-04-26T03:23:59;3.03;;;2.33;;
11651;SDS011;5882;48.818;9.114;2023-04-26T03:26:44;3.97;;;3.05;;
11651;SDS011;5882;48.818;9.114;2023-04-26T03:29:29;2.97;;;2.63;;
11651;SDS011;5882;48.818;9.114;2023-04-26T03:32:14;3.25;;;2.63;;
11651;SDS011;5882;48.818;9.114;2023-04-26T03:35:00;2.30;;;2.10;;
11651;SDS011;5882;48.818;9.114;2023-04-26T03:37:45;2.20;;;2.00;;
11651;SDS011;5882;48.818;9.114;2023-04-26T03:40:30;2.30;;;2.05;;
11651;SDS011;5882;48.818;9.114;2023-04-26T03:43:15;2.90;;;2.53;;
11651;SDS011;5882;48.818;9.114;2023-04-26T03:46:00;2.70;;;2.47;;
11651;SDS011;5882;48.818;9.114;2023-04-26T03:48:45;2.78;;;2.40;;
11651;SDS011;5882;48.818;9.114;2023-04-26T03:51:32;2.75;;;2.50;;
11651;SDS011;5882;48.818;9.114;2023-04-26T03:54:17;2.72;;;2.20;;
11651;SDS011;5882;48.818;9.114;2023-04-26T03:57:02;3.28;;;2.75;;
11651;SDS011;5882;48.818;9.114;2023-04-26T03:59:47;3.15;;;2.45;;
11651;SDS011;5882;48.818;9.114;2023-04-26T04:02:32;2.35;;;2.15;;
11651;SDS011;5882;48.818;9.114;2023-04-26T04:05:17;3.00;;;2.53;;
11651;SDS011;5882;48.818;9.114;2023-04-26T04:08:04;2.35;;;2.15;;
11651;SDS011;5882;48.818;9.114;2023-04-26T04:10:49;2.13;;;2.03;;
11651;SDS011;5882;48.818;9.114;2023-04-26T04:13:34;2.75;;;2.42;;
11651;SDS011;5882;48.818;9.114;2023-04-26T04:16:19;2.45;;;2.25;;
11651;SDS011;5882;48.818;9.114;2023-04-26T04:19:04;2.05;;;1.92;;
11651;SDS011;5882;48.818;9.114;2023-04-26T04:21:49;2.67;;;2.47;;
11651;SDS011;5882;48.818;9.114;2023-04-26T04:24:36;3.47;;;2.40;;
11651;SDS011;5882;48.818;9.114;2023-04-26T04:27:21;2.85;;;2.55;;
11651;SDS011;5882;48.818;9.114;2023-04-26T04:30:06;2.55;;;2.35;;
11651;SDS011;5882;48.818;9.114;2023-04-26T04:32:52;2.67;;;2.47;;
11651;SDS011;5882;48.818;9.114;2023-04-26T04:35:37;2.60;;;2.40;;
11651;SDS011;5882;48.818;9.114;2023-04-26T04:38:22;2.97;;;2.35;;
11651;SDS011;5882;48.818;9.114;2023-04-26T04:41:08;2.35;;;2.15;;
11651;SDS011;5882;48.818;9.114;2023-04-26T04:43:53;2.70;;;2.50;;
11651;SDS011;5882;48.818;9.114;2023-04-26T04:46:38;3.17;;;2.85;;
11651;SDS011;5882;48.818;9.114;2023-04-26T04:49:23;2.53;;;2.33;;
11651;SDS011;5882;48.818;9.114;2023-04-26T04:52:08;3.10;;;2.80;;
11651;SDS011;5882;48.818;9.114;2023-04-26T04:54:53;2.70;;;2.38;;
11651;SDS011;5882;48.818;9.114;2023-04-26T04:57:39;3.33;;;2.78;;
11651;SDS011;5882;48.818;9.114;2023-04-26T05:00:25;3.17;;;2.42;;
11651;SDS011;5882;48.818;9.114;2023-04-26T05:03:10;3.20;;;2.90;;
11651;SDS011;5882;48.818;9.114;2023-04-26T05:05:55;3.35;;;2.75;;
11651;SDS011;5882;48.818;9.114;2023-04-26T05:08:40;2.65;;;2.45;;
11651;SDS011;5882;48.818;9.114;2023-04-26T05:11:25;2.42;;;2.22;;
11651;SDS011;5882;48.818;9.114;2023-04-26T05:14:12;3.78;;;2.65;;
11651;SDS011;5882;48.818;9.114;2023-04-26T05:16:57;5.28;;;3.20;;
11651;SDS011;5882;48.818;9.114;2023-04-26T05:19:42;3.13;;;2.75;;
11651;SDS011;5882;48.818;9.114;2023-04-26T05:22:28;4.22;;;3.00;;
11651;SDS011;5882;48.818;9.114;2023-04-26T05:25:19;3.22;;;2.92;;
11651;SDS011;5882;48.818;9.114;2023-04-26T05:28:05;3.05;;;2.78;;
11651;SDS011;5882;48.818;9.114;2023-04-26T05:30:57;3.95;;;2.78;;
11651;SDS011;5882;48.818;9.114;2023-04-26T05:33:42;3.20;;;2.90;;
11651;SDS011;5882;48.818;9.114;2023-04-26T05:36:27;3.78;;;2.92;;
11651;SDS011;5882;48.818;9.114;2023-04-26T05:39:12;3.95;;;3.25;;
11651;SDS011;5882;48.818;9.114;2023-04-26T05:41:57;3.30;;;3.00;;
11651;SDS011;5882;48.818;9.114;2023-04-26T05:44:42;3.42;;;3.00;;
11651;SDS011;5882;48.818;9.114;2023-04-26T05:47:29;4.22;;;2.92;;
11651;SDS011;5882;48.818;9.114;2023-04-26T05:50:15;3.35;;;3.10;;
11651;SDS011;5882;48.818;9.114;2023-04-26T05:53:00;3.20;;;2.90;;
11651;SDS011;5882;48.818;9.114;2023-04-26T05:55:45;3.10;;;2.80;;
11651;SDS011;5882;48.818;9.114;2023-04-26T05:58:30;6.22;;;3.10;;
11651;SDS011;5882;48.818;9.114;2023-04-26T06:01:16;3.38;;;2.80;;
11651;SDS011;5882;48.818;9.114;2023-04-26T06:04:03;3.75;;;3.13;;
11651;SDS011;5882;48.818;9.114;2023-04-26T06:06:48;4.60;;;3.00;;
11651;SDS011;5882;48.818;9.114;2023-04-26T06:09:33;3.85;;;3.17;;
11651;SDS011;5882;48.818;9.114;2023-04-26T06:12:19;3.13;;;2.63;;
11651;SDS011;5882;48.818;9.114;2023-04-26T06:15:04;4.43;;;3.53;;
11651;SDS011;5882;48.818;9.114;2023-04-26T06:17:49;4.05;;;2.95;;
11651;SDS011;5882;48.818;9.114;2023-04-26T06:20:36;3.60;;;3.10;;
11651;SDS011;5882;48.818;9.114;2023-04-26T06:23:21;5.75;;;2.90;;
11651;SDS011;5882;48.818;9.114;2023-04-26T06:26:06;3.40;;;2.90;;
11651;SDS011;5882;48.818;9.114;2023-04-26T06:28:51;4.80;;;3.15;;
11651;SDS011;5882;48.818;9.114;2023-04-26T06:31:36;3.85;;;2.75;;
11651;SDS011;5882;48.818;9.114;2023-04-26T06:34:21;3.95;;;2.90;;
11651;SDS011;5882;48.818;9.114;2023-04-26T06:37:08;4.00;;;3.55;;
11651;SDS011;5882;48.818;9.114;2023-04-26T06:39:53;4.13;;;3.08;;
11651;SDS011;5882;48.818;9.114;2023-04-26T06:42:39;2.95;;;2.67;;
11651;SDS011;5882;48.818;9.114;2023-04-26T06:45:24;3.20;;;2.90;;
11651;SDS011;5882;48.818;9.114;2023-04-26T06:48:09;3.17;;;2.65;;
11651;SDS011;5882;48.818;9.114;2023-04-26T06:50:54;3.72;;;2.88;;
11651;SDS011;5882;48.818;9.114;2023-04-26T06:53:41;3.53;;;2.88;;
11651;SDS011;5882;48.818;9.114;2023-04-26T06:56:26;3.35;;;2.72;;
11651;SDS011;5882;48.818;9.114;2023-04-26T06:59:11;3.65;;;2.78;;
11651;SDS011;5882;48.818;9.114;2023-04-26T07:01:56;3.40;;;2.70;;
11651;SDS011;5882;48.818;9.114;2023-04-26T07:04:41;2.80;;;2.60;;
11651;SDS011;5882;48.818;9.114;2023-04-26T07:07:26;2.65;;;2.45;;
11651;SDS011;5882;48.818;9.114;2023-04-26T07:10:13;3.85;;;2.40;;
11651;SDS011;5882;48.818;9.114;2023-04-26T07:12:58;2.95;;;2.47;;
11651;SDS011;5882;48.818;9.114;2023-04-26T07:15:44;2.03;;;1.90;;
11651;SDS011;5882;48.818;9.114;2023-04-26T07:18:29;2.40;;;2.17;;
11651;SDS011;5882;48.818;9.114;2023-04-26T07:21:14;2.35;;;2.15;;
11651;SDS011;5882;48.818;9.114;2023-04-26T07:23:59;2.03;;;1.83;;
11651;SDS011;5882;48.818;9.114;2023-04-26T07:26:46;2.55;;;2.22;;
11651;SDS011;5882;48.818;9.114;2023-04-26T07:29:32;1.98;;;1.77;;
11651;SDS011;5882;48.818;9.114;2023-04-26T07:32:17;2.13;;;1.92;;
11651;SDS011;5882;48.818;9.114;2023-04-26T07:35:04;1.90;;;1.70;;
11651;SDS011;5882;48.818;9.114;2023-04-26T07:37:50;1.88;;;1.77;;
11651;SDS011;5882;48.818;9.114;2023-04-26T07:40:35;3.53;;;1.90;;
11651;SDS011;5882;48.818;9.114;2023-04-26T07:43:21;2.10;;;1.90;;
11651;SDS011;5882;48.818;9.114;2023-04-26T07:46:06;1.73;;;1.63;;
11651;SDS011;5882;48.818;9.114;2023-04-26T07:48:51;1.90;;;1.80;;
11651;SDS011;5882;48.818;9.114;2023-04-26T07:51:37;1.60;;;1.50;;
11651;SDS011;5882;48.818;9.114;2023-04-26T07:54:22;2.30;;;1.95;;
11651;SDS011;5882;48.818;9.114;2023-04-26T07:57:07;2.28;;;2.05;;
11651;SDS011;5882;48.818;9.114;2023-04-26T07:59:53;2.40;;;1.60;;
11651;SDS011;5882;48.818;9.114;2023-04-26T08:02:39;1.75;;;1.65;;
11651;SDS011;5882;48.818;9.114;2023-04-26T08:05:24;2.13;;;1.92;;
11651;SDS011;5882;48.818;9.114;2023-04-26T08:08:10;1.80;;;1.70;;
11651;SDS011;5882;48.818;9.114;2023-04-26T08:10:56;1.80;;;1.70;;
11651;SDS011;5882;48.818;9.114;2023-04-26T08:13:41;1.92;;;1.75;;
11651;SDS011;5882;48.818;9.114;2023-04-26T08:16:28;2.67;;;1.85;;
11651;SDS011;5882;48.818;9.114;2023-04-26T08:19:13;3.63;;;2.03;;
11651;SDS011;5882;48.818;9.114;2023-04-26T08:21:59;2.10;;;1.80;;
11651;SDS011;5882;48.818;9.114;2023-04-26T08:24:46;3.35;;;1.90;;
11651;SDS011;5882;48.818;9.114;2023-04-26T08:27:31;2.22;;;1.75;;
11651;SDS011;5882;48.818;9.114;2023-04-26T08:30:17;2.20;;;1.95;;
11651;SDS011;5882;48.818;9.114;2023-04-26T08:33:04;2.63;;;1.60;;
11651;SDS011;5882;48.818;9.114;2023-04-26T08:35:49;2.20;;;2.00;;
11651;SDS011;5882;48.818;9.114;2023-04-26T08:38:35;2.17;;;1.65;;
11651;SDS011;5882;48.818;9.114;2023-04-26T08:41:20;2.15;;;1.92;;
11651;SDS011;5882;48.818;9.114;2023-04-26T08:44:06;2.42;;;2.22;;
11651;SDS011;5882;48.818;9.114;2023-04-26T08:46:55;1.90;;;1.70;;
11651;SDS011;5882;48.818;9.114;2023-04-26T08:49:44;1.95;;;1.83;;
11651;SDS011;5882;48.818;9.114;2023-04-26T08:52:30;1.67;;;1.58;;
11651;SDS011;5882;48.818;9.114;2023-04-26T08:55:16;1.98;;;1.88;;
11651;SDS011;5882;48.818;9.114;2023-04-26T08:58:02;1.95;;;1.85;;
11651;SDS011;5882;48.818;9.114;2023-04-26T09:00:47;1.73;;;1.63;;
11651;SDS011;5882;48.818;9.114;2023-04-26T09:03:33;3.28;;;1.80;;
11651;SDS011;5882;48.818;9.114;2023-04-26T09:06:20;2.03;;;1.65;;
11651;SDS011;5882;48.818;9.114;2023-04-26T09:09:06;2.55;;;1.90;;
11651;SDS011;5882;48.818;9.114;2023-04-26T09:11:53;2.45;;;1.92;;
11651;SDS011;5882;48.818;9.114;2023-04-26T09:14:39;2.25;;;2.03;;
11651;SDS011;5882;48.818;9.114;2023-04-26T09:17:24;2.28;;;1.77;;
11651;SDS011;5882;48.818;9.114;2023-04-26T09:20:17;3.60;;;1.88;;
11651;SDS011;5882;48.818;9.114;2023-04-26T09:23:04;2.10;;;2.00;;
11651;SDS011;5882;48.818;9.114;2023-04-26T09:25:50;1.98;;;1.80;;
11651;SDS011;5882;48.818;9.114;2023-04-26T09:28:35;1.80;;;1.70;;
11651;SDS011;5882;48.818;9.114;2023-04-26T09:31:35;2.30;;;2.10;;
11651;SDS011;5882;48.818;9.114;2023-04-26T09:34:22;2.55;;;1.80;;
11651;SDS011;5882;48.818;9.114;2023-04-26T09:37:07;2.40;;;2.20;;
11651;SDS011;5882;48.818;9.114;2023-04-26T09:39:56;1.98;;;1.88;;
11651;SDS011;5882;48.818;9.114;2023-04-26T09:42:41;2.58;;;2.15;;
11651;SDS011;5882;48.818;9.114;2023-04-26T09:45:26;3.13;;;1.85;;
11651;SDS011;5882;48.818;9.114;2023-04-26T09:48:13;2.08;;;1.80;;
11651;SDS011;5882;48.818;9.114;2023-04-26T09:51:08;1.75;;;1.65;;
11651;SDS011;5882;48.818;9.114;2023-04-26T09:53:54;2.78;;;2.13;;
11651;SDS011;5882;48.818;9.114;2023-04-26T09:56:40;2.58;;;1.60;;
11651;SDS011;5882;48.818;9.114;2023-04-26T09:59:27;1.70;;;1.60;;
11651;SDS011;5882;48.818;9.114;2023-04-26T10:02:23;2.03;;;1.88;;
11651;SDS011;5882;48.818;9.114;2023-04-26T10:05:11;2.15;;;2.00;;
11651;SDS011;5882;48.818;9.114;2023-04-26T10:08:02;1.80;;;1.70;;
11651;SDS011;5882;48.818;9.114;2023-04-26T10:10:48;2.80;;;1.98;;
11651;SDS011;5882;48.818;9.114;2023-04-26T10:13:34;1.90;;;1.75;;
11651;SDS011;5882;48.818;9.114;2023-04-26T10:16:19;1.73;;;1.63;;
11651;SDS011;5882;48.818;9.114;2023-04-26T10:19:07;1.50;;;1.40;;
11651;SDS011;5882;48.818;9.114;2023-04-26T10:21:53;1.70;;;1.60;;
11651;SDS011;5882;48.818;9.114;2023-04-26T10:24:42;1.70;;;1.52;;
11651;SDS011;5882;48.818;9.114;2023-04-26T10:30:29;1.92;;;1.77;;
11651;SDS011;5882;48.818;9.114;2023-04-26T10:33:15;1.50;;;1.40;;
11651;SDS011;5882;48.818;9.114;2023-04-26T10:36:04;1.75;;;1.65;;
11651;SDS011;5882;48.818;9.114;2023-04-26T10:41:58;2.67;;;2.00;;
11651;SDS011;5882;48.818;9.114;2023-04-26T10:45:22;1.90;;;1.67;;
11651;SDS011;5882;48.818;9.114;2023-04-26T10:48:17;2.15;;;1.95;;
11651;SDS011;5882;48.818;9.114;2023-04-26T10:51:06;2.13;;;1.90;;
11651;SDS011;5882;48.818;9.114;2023-04-26T10:53:58;2.58;;;2.38;;
11651;SDS011;5882;48.818;9.114;2023-04-26T10:56:50;3.58;;;2.10;;
11651;SDS011;5882;48.818;9.114;2023-04-26T10:59:36;2.45;;;1.83;;
11651;SDS011;5882;48.818;9.114;2023-04-26T11:05:36;1.83;;;1.73;;
11651;SDS011;5882;48.818;9.114;2023-04-26T11:08:25;2.28;;;2.08;;
11651;SDS011;5882;48.818;9.114;2023-04-26T11:11:11;1.90;;;1.80;;
11651;SDS011;5882;48.818;9.114;2023-04-26T11:13:56;2.03;;;1.80;;
11651;SDS011;5882;48.818;9.114;2023-04-26T11:16:45;2.15;;;1.95;;
11651;SDS011;5882;48.818;9.114;2023-04-26T11:19:30;2.55;;;2.25;;
11651;SDS011;5882;48.818;9.114;2023-04-26T11:22:20;2.03;;;1.92;;
11651;SDS011;5882;48.818;9.114;2023-04-26T11:25:06;1.60;;;1.50;;
11651;SDS011;5882;48.818;9.114;2023-04-26T11:28:00;2.20;;;2.00;;
11651;SDS011;5882;48.818;9.114;2023-04-26T11:30:47;2.15;;;1.80;;
11651;SDS011;5882;48.818;9.114;2023-04-26T11:33:33;2.17;;;1.73;;
11651;SDS011;5882;48.818;9.114;2023-04-26T11:36:18;2.00;;;1.88;;
11651;SDS011;5882;48.818;9.114;2023-04-26T11:39:05;3.00;;;1.95;;
11651;SDS011;5882;48.818;9.114;2023-04-26T11:41:51;2.53;;;1.88;;
11651;SDS011;5882;48.818;9.114;2023-04-26T11:44:40;2.00;;;1.90;;
11651;SDS011;5882;48.818;9.114;2023-04-26T11:47:26;2.15;;;1.80;;
11651;SDS011;5882;48.818;9.114;2023-04-26T11:50:13;1.75;;;1.65;;
11651;SDS011;5882;48.818;9.114;2023-04-26T11:52:59;1.65;;;1.55;;
11651;SDS011;5882;48.818;9.114;2023-04-26T11:55:46;1.60;;;1.50;;
11651;SDS011;5882;48.818;9.114;2023-04-26T11:58:31;2.38;;;1.80;;
11651;SDS011;5882;48.818;9.114;2023-04-26T12:01:20;1.90;;;1.80;;
11651;SDS011;5882;48.818;9.114;2023-04-26T12:04:08;1.88;;;1.77;;
11651;SDS011;5882;48.818;9.114;2023-04-26T12:06:53;2.05;;;1.67;;
11651;SDS011;5882;48.818;9.114;2023-04-26T12:09:39;1.73;;;1.60;;
11651;SDS011;5882;48.818;9.114;2023-04-26T12:12:26;1.58;;;1.48;;
11651;SDS011;5882;48.818;9.114;2023-04-26T12:15:11;2.30;;;2.10;;
11651;SDS011;5882;48.818;9.114;2023-04-26T12:17:57;1.95;;;1.63;;
11651;SDS011;5882;48.818;9.114;2023-04-26T12:20:43;2.13;;;1.58;;
11651;SDS011;5882;48.818;9.114;2023-04-26T12:23:36;1.80;;;1.50;;
11651;SDS011;5882;48.818;9.114;2023-04-26T12:26:42;3.25;;;2.00;;
11651;SDS011;5882;48.818;9.114;2023-04-26T12:29:33;1.50;;;1.40;;
11651;SDS011;5882;48.818;9.114;2023-04-26T12:32:32;1.55;;;1.45;;
11651;SDS011;5882;48.818;9.114;2023-04-26T12:35:17;1.58;;;1.48;;
11651;SDS011;5882;48.818;9.114;2023-04-26T12:38:03;2.67;;;1.70;;
11651;SDS011;5882;48.818;9.114;2023-04-26T12:40:48;1.55;;;1.45;;
11651;SDS011;5882;48.818;9.114;2023-04-26T12:51:15;1.75;;;1.65;;
11651;SDS011;5882;48.818;9.114;2023-04-26T12:53:59;1.83;;;1.73;;
11651;SDS011;5882;48.818;9.114;2023-04-26T12:56:44;1.23;;;1.20;;
11651;SDS011;5882;48.818;9.114;2023-04-26T12:59:31;1.92;;;1.70;;
11651;SDS011;5882;48.818;9.114;2023-04-26T13:02:16;1.67;;;1.58;;
11651;SDS011;5882;48.818;9.114;2023-04-26T13:05:01;1.52;;;1.42;;
11651;SDS011;5882;48.818;9.114;2023-04-26T13:07:50;1.60;;;1.50;;
11651;SDS011;5882;48.818;9.114;2023-04-26T13:10:35;1.60;;;1.50;;
11651;SDS011;5882;48.818;9.114;2023-04-26T13:13:20;1.75;;;1.65;;
11651;SDS011;5882;48.818;9.114;2023-04-26T13:16:06;1.83;;;1.45;;
11651;SDS011;5882;48.818;9.114;2023-04-26T13:18:51;1.60;;;1.50;;
11651;SDS011;5882;48.818;9.114;2023-04-26T13:21:37;1.40;;;1.30;;
11651;SDS011;5882;48.818;9.114;2023-04-26T13:24:24;1.95;;;1.50;;
11651;SDS011;5882;48.818;9.114;2023-04-26T13:27:09;1.52;;;1.42;;
11651;SDS011;5882;48.818;9.114;2023-04-26T13:29:55;1.48;;;1.38;;
11651;SDS011;5882;48.818;9.114;2023-04-26T13:32:41;1.65;;;1.55;;
11651;SDS011;5882;48.818;9.114;2023-04-26T13:35:26;1.50;;;1.40;;
11651;SDS011;5882;48.818;9.114;2023-04-26T13:38:12;2.08;;;1.63;;
11651;SDS011;5882;48.818;9.114;2023-04-26T13:40:58;2.30;;;1.63;;
11651;SDS011;5882;48.818;9.114;2023-04-26T13:43:43;2.95;;;1.80;;
11651;SDS011;5882;48.818;9.114;2023-04-26T13:46:29;2.17;;;1.67;;
11651;SDS011;5882;48.818;9.114;2023-04-26T13:49:14;2.13;;;1.90;;
11651;SDS011;5882;48.818;9.114;2023-04-26T13:51:59;2.08;;;1.55;;
11651;SDS011;5882;48.818;9.114;2023-04-26T13:54:45;1.80;;;1.70;;
11651;SDS011;5882;48.818;9.114;2023-04-26T13:57:31;1.60;;;1.50;;
11651;SDS011;5882;48.818;9.114;2023-04-26T14:00:17;1.50;;;1.40;;
11651;SDS011;5882;48.818;9.114;2023-04-26T14:03:02;1.75;;;1.60;;
11651;SDS011;5882;48.818;9.114;2023-04-26T14:05:47;1.60;;;1.50;;
11651;SDS011;5882;48.818;9.114;2023-04-26T14:08:32;1.80;;;1.70;;
11651;SDS011;5882;48.818;9.114;2023-04-26T14:11:18;1.63;;;1.52;;
11651;SDS011;5882;48.818;9.114;2023-04-26T14:14:05;3.05;;;1.63;;
11651;SDS011;5882;48.818;9.114;2023-04-26T14:16:50;1.58;;;1.48;;
11651;SDS011;5882;48.818;9.114;2023-04-26T14:19:35;1.75;;;1.60;;
11651;SDS011;5882;48.818;9.114;2023-04-26T14:22:20;1.90;;;1.70;;
11651;SDS011;5882;48.818;9.114;2023-04-26T14:25:06;1.50;;;1.40;;
11651;SDS011;5882;48.818;9.114;2023-04-26T14:27:51;1.50;;;1.40;;
11651;SDS011;5882;48.818;9.114;2023-04-26T14:30:38;1.70;;;1.60;;
11651;SDS011;5882;48.818;9.114;2023-04-26T14:33:23;1.52;;;1.42;;
11651;SDS011;5882;48.818;9.114;2023-04-26T14:36:09;1.63;;;1.52;;
11651;SDS011;5882;48.818;9.114;2023-04-26T14:38:54;1.92;;;1.70;;
11651;SDS011;5882;48.818;9.114;2023-04-26T14:41:39;1.40;;;1.30;;
11651;SDS011;5882;48.818;9.114;2023-04-26T14:44:24;1.90;;;1.80;;
11651;SDS011;5882;48.818;9.114;2023-04-26T14:47:15;1.83;;;1.73;;
11651;SDS011;5882;48.818;9.114;2023-04-26T14:50:03;1.52;;;1.45;;
11651;SDS011;5882;48.818;9.114;2023-04-26T14:52:49;1.85;;;1.70;;
11651;SDS011;5882;48.818;9.114;2023-04-26T14:55:35;1.85;;;1.65;;
11651;SDS011;5882;48.818;9.114;2023-04-26T14:58:20;2.03;;;1.88;;
11651;SDS011;5882;48.818;9.114;2023-04-26T15:01:05;1.67;;;1.58;;
11651;SDS011;5882;48.818;9.114;2023-04-26T15:03:52;2.38;;;1.90;;
11651;SDS011;5882;48.818;9.114;2023-04-26T15:06:37;1.83;;;1.50;;
11651;SDS011;5882;48.818;9.114;2023-04-26T15:09:23;1.70;;;1.60;;
11651;SDS011;5882;48.818;9.114;2023-04-26T15:12:09;1.70;;;1.60;;
11651;SDS011;5882;48.818;9.114;2023-04-26T15:14:54;2.05;;;1.90;;
11651;SDS011;5882;48.818;9.114;2023-04-26T15:17:41;1.83;;;1.70;;
11651;SDS011;5882;48.818;9.114;2023-04-26T15:20:27;1.85;;;1.60;;
11651;SDS011;5882;48.818;9.114;2023-04-26T15:23:12;1.42;;;1.33;;
11651;SDS011;5882;48.818;9.114;2023-04-26T15:26:00;1.48;;;1.38;;
11651;SDS011;5882;48.818;9.114;2023-04-26T16:22:57;1.25;;;1.23;;
11651;SDS011;5882;48.818;9.114;2023-04-26T16:25:42;1.15;;;1.13;;
11651;SDS011;5882;48.818;9.114;2023-04-26T16:28:28;1.70;;;1.60;;
11651;SDS011;5882;48.818;9.114;2023-04-26T16:31:13;1.48;;;1.38;;
11651;SDS011;5882;48.818;9.114;2023-04-26T16:33:58;1.23;;;1.13;;
11651;SDS011;5882;48.818;9.114;2023-04-26T16:36:43;2.08;;;1.30;;
11651;SDS011;5882;48.818;9.114;2023-04-26T16:39:29;1.50;;;1.40;;
11651;SDS011;5882;48.818;9.114;2023-04-26T16:42:15;1.00;;;1.00;;
11651;SDS011;5882;48.818;9.114;2023-04-26T16:45:00;2.97;;;1.35;;
11651;SDS011;5882;48.818;9.114;2023-04-26T16:47:45;1.42;;;1.10;;
11651;SDS011;5882;48.818;9.114;2023-04-26T16:50:30;1.50;;;1.40;;
11651;SDS011;5882;48.818;9.114;2023-04-26T16:53:16;1.40;;;1.30;;
11651;SDS011;5882;48.818;9.114;2023-04-26T16:56:03;1.20;;;1.20;;
11651;SDS011;5882;48.818;9.114;2023-04-26T16:58:49;2.13;;;1.38;;
11651;SDS011;5882;48.818;9.114;2023-04-26T17:01:34;1.40;;;1.30;;
11651;SDS011;5882;48.818;9.114;2023-04-26T17:04:20;2.05;;;1.80;;
11651;SDS011;5882;48.818;9.114;2023-04-26T17:07:05;1.60;;;1.50;;
11651;SDS011;5882;48.818;9.114;2023-04-26T17:09:51;2.13;;;1.60;;
11651;SDS011;5882;48.818;9.114;2023-04-26T17:12:40;1.30;;;1.20;;
11651;SDS011;5882;48.818;9.114;2023-04-26T17:15:28;1.23;;;1.20;;
11651;SDS011;5882;48.818;9.114;2023-04-26T17:18:16;1.40;;;1.30;;
11651;SDS011;5882;48.818;9.114;2023-04-26T17:21:01;1.30;;;1.20;;
11651;SDS011;5882;48.818;9.114;2023-04-26T17:23:47;2.30;;;1.67;;
11651;SDS011;5882;48.818;9.114;2023-04-26T17:26:32;3.13;;;1.23;;
11651;SDS011;5882;48.818;9.114;2023-04-26T17:29:19;1.38;;;1.30;;
11651;SDS011;5882;48.818;9.114;2023-04-26T17:32:05;1.40;;;1.30;;
11651;SDS011;5882;48.818;9.114;2023-04-26T17:34:50;1.58;;;1.48;;
11651;SDS011;5882;48.818;9.114;2023-04-26T17:37:36;1.55;;;1.45;;
11651;SDS011;5882;48.818;9.114;2023-04-26T17:40:21;1.40;;;1.30;;
11651;SDS011;5882;48.818;9.114;2023-04-26T17:43:06;1.65;;;1.55;;
11651;SDS011;5882;48.818;9.114;2023-04-26T17:45:53;2.50;;;1.50;;
11651;SDS011;5882;48.818;9.114;2023-04-26T17:48:38;1.33;;;1.30;;
11651;SDS011;5882;48.818;9.114;2023-04-26T17:51:23;1.25;;;1.10;;
11651;SDS011;5882;48.818;9.114;2023-04-26T17:54:08;1.17;;;1.17;;
11651;SDS011;5882;48.818;9.114;2023-04-26T18:00:01;1.30;;;1.20;;
11651;SDS011;5882;48.818;9.114;2023-04-26T18:02:49;1.20;;;1.10;;
11651;SDS011;5882;48.818;9.114;2023-04-26T18:06:03;1.27;;;1.20;;
11651;SDS011;5882;48.818;9.114;2023-04-26T18:09:13;1.30;;;1.20;;
11651;SDS011;5882;48.818;9.114;2023-04-26T18:11:58;1.23;;;1.13;;